sensor_id;sensor_type;location;lat;lon;timestamp;P1;durP1;ratioP1;P2;durP2;ratioP2
24715;SDS011;12822;50.124;8.678;2023-06-22T00:00:28;8.18;;;7.15;;
24715;SDS011;12822;50.124;8.678;2023-06-22T00:02:54;9.95;;;7.15;;
24715;SDS011;12822;50.124;8.678;2023-06-22T00:05:20;9.63;;;7.05;;
24715;SDS011;12822;50.124;8.678;2023-06-22T00:07:46;8.05;;;7.25;;
24715;SDS011;12822;50.124;8.678;2023-06-22T00:10:12;7.88;;;6.60;;
24715;SDS011;12822;50.124;8.678;2023-06-22T00:12:38;8.38;;;6.68;;
24715;SDS011;12822;50.124;8.678;2023-06-22T00:15:04;9.00;;;7.22;;
24715;SDS011;12822;50.124;8.678;2023-06-22T00:17:31;10.65;;;7.10;;
24715;SDS011;12822;50.124;8.678;2023-06-22T00:19:56;9.57;;;6.25;;
24715;SDS011;12822;50.124;8.678;2023-06-22T00:22:23;7.15;;;6.15;;
24715;SDS011;12822;50.124;8.678;2023-06-22T00:24:53;10.60;;;6.25;;
24715;SDS011;12822;50.124;8.678;2023-06-22T00:27:19;12.10;;;6.28;;
24715;SDS011;12822;50.124;8.678;2023-06-22T00:29:45;9.43;;;6.28;;
24715;SDS011;12822;50.124;8.678;2023-06-22T00:32:11;8.55;;;6.38;;
24715;SDS011;12822;50.124;8.678;2023-06-22T00:34:37;7.30;;;5.93;;
24715;SDS011;12822;50.124;8.678;2023-06-22T00:37:03;18.48;;;6.47;;
24715;SDS011;12822;50.124;8.678;2023-06-22T00:39:29;7.10;;;5.90;;
24715;SDS011;12822;50.124;8.678;2023-06-22T00:41:58;6.82;;;6.13;;
24715;SDS011;12822;50.124;8.678;2023-06-22T00:44:24;10.38;;;6.28;;
24715;SDS011;12822;50.124;8.678;2023-06-22T00:46:51;8.02;;;6.05;;
24715;SDS011;12822;50.124;8.678;2023-06-22T00:49:17;9.00;;;6.38;;
24715;SDS011;12822;50.124;8.678;2023-06-22T00:51:43;7.68;;;6.30;;
24715;SDS011;12822;50.124;8.678;2023-06-22T00:54:11;7.43;;;6.45;;
24715;SDS011;12822;50.124;8.678;2023-06-22T00:56:39;7.88;;;6.07;;
24715;SDS011;12822;50.124;8.678;2023-06-22T00:59:05;10.75;;;6.38;;
24715;SDS011;12822;50.124;8.678;2023-06-22T01:01:31;9.07;;;6.30;;
24715;SDS011;12822;50.124;8.678;2023-06-22T01:03:59;7.93;;;6.45;;
24715;SDS011;12822;50.124;8.678;2023-06-22T01:06:29;7.93;;;6.20;;
24715;SDS011;12822;50.124;8.678;2023-06-22T01:09:22;7.05;;;5.82;;
24715;SDS011;12822;50.124;8.678;2023-06-22T01:11:57;6.93;;;6.22;;
24715;SDS011;12822;50.124;8.678;2023-06-22T01:14:39;8.13;;;6.45;;
24715;SDS011;12822;50.124;8.678;2023-06-22T01:17:07;7.65;;;6.22;;
24715;SDS011;12822;50.124;8.678;2023-06-22T01:19:50;7.60;;;6.32;;
24715;SDS011;12822;50.124;8.678;2023-06-22T01:22:17;8.90;;;6.53;;
24715;SDS011;12822;50.124;8.678;2023-06-22T01:24:49;9.18;;;6.68;;
24715;SDS011;12822;50.124;8.678;2023-06-22T01:27:23;10.27;;;7.03;;
24715;SDS011;12822;50.124;8.678;2023-06-22T01:29:55;11.88;;;7.60;;
24715;SDS011;12822;50.124;8.678;2023-06-22T01:32:30;9.45;;;7.53;;
24715;SDS011;12822;50.124;8.678;2023-06-22T01:34:57;10.25;;;7.85;;
24715;SDS011;12822;50.124;8.678;2023-06-22T01:37:24;13.32;;;8.15;;
24715;SDS011;12822;50.124;8.678;2023-06-22T01:39:50;10.20;;;8.13;;
24715;SDS011;12822;50.124;8.678;2023-06-22T01:42:16;12.07;;;8.25;;
24715;SDS011;12822;50.124;8.678;2023-06-22T01:44:42;11.70;;;7.82;;
24715;SDS011;12822;50.124;8.678;2023-06-22T01:47:09;11.82;;;7.90;;
24715;SDS011;12822;50.124;8.678;2023-06-22T01:49:35;11.68;;;8.70;;
24715;SDS011;12822;50.124;8.678;2023-06-22T01:52:01;8.95;;;8.05;;
24715;SDS011;12822;50.124;8.678;2023-06-22T01:54:28;10.02;;;8.27;;
24715;SDS011;12822;50.124;8.678;2023-06-22T01:56:54;10.07;;;8.30;;
24715;SDS011;12822;50.124;8.678;2023-06-22T01:59:24;12.02;;;8.77;;
24715;SDS011;12822;50.124;8.678;2023-06-22T02:01:57;10.52;;;8.63;;
24715;SDS011;12822;50.124;8.678;2023-06-22T02:04:27;10.73;;;8.90;;
24715;SDS011;12822;50.124;8.678;2023-06-22T02:06:56;10.52;;;8.35;;
24715;SDS011;12822;50.124;8.678;2023-06-22T02:09:24;13.40;;;8.40;;
24715;SDS011;12822;50.124;8.678;2023-06-22T02:11:52;9.85;;;8.65;;
24715;SDS011;12822;50.124;8.678;2023-06-22T02:14:20;9.60;;;8.55;;
24715;SDS011;12822;50.124;8.678;2023-06-22T02:16:46;9.85;;;8.75;;
24715;SDS011;12822;50.124;8.678;2023-06-22T02:19:12;12.18;;;8.80;;
24715;SDS011;12822;50.124;8.678;2023-06-22T02:21:40;12.40;;;9.57;;
24715;SDS011;12822;50.124;8.678;2023-06-22T02:24:06;9.27;;;8.38;;
24715;SDS011;12822;50.124;8.678;2023-06-22T02:26:32;9.20;;;8.30;;
24715;SDS011;12822;50.124;8.678;2023-06-22T02:28:59;11.43;;;8.40;;
24715;SDS011;12822;50.124;8.678;2023-06-22T02:31:25;9.10;;;8.13;;
24715;SDS011;12822;50.124;8.678;2023-06-22T02:33:55;9.55;;;8.55;;
24715;SDS011;12822;50.124;8.678;2023-06-22T02:36:22;9.98;;;8.13;;
24715;SDS011;12822;50.124;8.678;2023-06-22T02:38:48;10.75;;;8.75;;
24715;SDS011;12822;50.124;8.678;2023-06-22T02:41:15;10.57;;;9.07;;
24715;SDS011;12822;50.124;8.678;2023-06-22T02:43:45;14.93;;;9.00;;
24715;SDS011;12822;50.124;8.678;2023-06-22T02:46:11;10.63;;;9.05;;
24715;SDS011;12822;50.124;8.678;2023-06-22T02:48:38;10.43;;;8.75;;
24715;SDS011;12822;50.124;8.678;2023-06-22T02:51:04;14.65;;;9.35;;
24715;SDS011;12822;50.124;8.678;2023-06-22T02:53:30;10.38;;;8.85;;
24715;SDS011;12822;50.124;8.678;2023-06-22T02:55:57;11.40;;;8.38;;
24715;SDS011;12822;50.124;8.678;2023-06-22T02:58:23;12.45;;;9.35;;
24715;SDS011;12822;50.124;8.678;2023-06-22T03:00:49;10.85;;;9.13;;
24715;SDS011;12822;50.124;8.678;2023-06-22T03:03:18;11.10;;;8.65;;
24715;SDS011;12822;50.124;8.678;2023-06-22T03:05:44;10.35;;;8.60;;
24715;SDS011;12822;50.124;8.678;2023-06-22T03:08:10;10.68;;;8.57;;
24715;SDS011;12822;50.124;8.678;2023-06-22T03:10:36;10.80;;;8.57;;
24715;SDS011;12822;50.124;8.678;2023-06-22T03:13:02;9.85;;;8.85;;
24715;SDS011;12822;50.124;8.678;2023-06-22T03:15:28;11.23;;;8.60;;
24715;SDS011;12822;50.124;8.678;2023-06-22T03:17:56;11.18;;;9.10;;
24715;SDS011;12822;50.124;8.678;2023-06-22T03:20:22;13.23;;;9.52;;
24715;SDS011;12822;50.124;8.678;2023-06-22T03:22:48;14.50;;;9.40;;
24715;SDS011;12822;50.124;8.678;2023-06-22T03:25:14;13.35;;;9.13;;
24715;SDS011;12822;50.124;8.678;2023-06-22T03:27:40;13.35;;;9.73;;
24715;SDS011;12822;50.124;8.678;2023-06-22T03:30:07;14.65;;;9.27;;
24715;SDS011;12822;50.124;8.678;2023-06-22T03:32:34;12.27;;;9.88;;
24715;SDS011;12822;50.124;8.678;2023-06-22T03:35:00;12.18;;;9.52;;
24715;SDS011;12822;50.124;8.678;2023-06-22T03:37:26;12.38;;;8.75;;
24715;SDS011;12822;50.124;8.678;2023-06-22T03:39:52;15.35;;;9.93;;
24715;SDS011;12822;50.124;8.678;2023-06-22T03:42:18;12.15;;;9.77;;
24715;SDS011;12822;50.124;8.678;2023-06-22T03:44:44;11.27;;;10.15;;
24715;SDS011;12822;50.124;8.678;2023-06-22T03:47:10;13.02;;;8.93;;
24715;SDS011;12822;50.124;8.678;2023-06-22T03:49:36;12.85;;;9.45;;
24715;SDS011;12822;50.124;8.678;2023-06-22T03:52:02;10.35;;;9.25;;
24715;SDS011;12822;50.124;8.678;2023-06-22T03:54:29;10.73;;;8.70;;
24715;SDS011;12822;50.124;8.678;2023-06-22T03:56:57;10.88;;;9.32;;
24715;SDS011;12822;50.124;8.678;2023-06-22T03:59:23;14.98;;;9.75;;
24715;SDS011;12822;50.124;8.678;2023-06-22T04:01:49;12.57;;;9.45;;
24715;SDS011;12822;50.124;8.678;2023-06-22T04:04:15;14.13;;;9.55;;
24715;SDS011;12822;50.124;8.678;2023-06-22T04:06:41;10.10;;;9.00;;
24715;SDS011;12822;50.124;8.678;2023-06-22T04:09:07;11.38;;;9.25;;
24715;SDS011;12822;50.124;8.678;2023-06-22T04:11:33;9.73;;;8.75;;
24715;SDS011;12822;50.124;8.678;2023-06-22T04:13:59;13.10;;;9.00;;
24715;SDS011;12822;50.124;8.678;2023-06-22T04:16:25;11.82;;;9.75;;
24715;SDS011;12822;50.124;8.678;2023-06-22T04:18:51;12.15;;;9.68;;
24715;SDS011;12822;50.124;8.678;2023-06-22T04:21:17;13.80;;;9.65;;
24715;SDS011;12822;50.124;8.678;2023-06-22T04:23:44;11.82;;;9.75;;
24715;SDS011;12822;50.124;8.678;2023-06-22T04:26:11;11.27;;;9.85;;
24715;SDS011;12822;50.124;8.678;2023-06-22T04:28:37;14.27;;;9.95;;
24715;SDS011;12822;50.124;8.678;2023-06-22T04:31:03;11.95;;;9.90;;
24715;SDS011;12822;50.124;8.678;2023-06-22T04:33:29;13.43;;;9.60;;
24715;SDS011;12822;50.124;8.678;2023-06-22T04:35:55;11.32;;;9.73;;
24715;SDS011;12822;50.124;8.678;2023-06-22T04:38:28;17.55;;;10.10;;
24715;SDS011;12822;50.124;8.678;2023-06-22T04:40:58;12.05;;;10.18;;
24715;SDS011;12822;50.124;8.678;2023-06-22T04:43:26;15.65;;;10.07;;
24715;SDS011;12822;50.124;8.678;2023-06-22T04:45:55;16.55;;;10.80;;
24715;SDS011;12822;50.124;8.678;2023-06-22T04:48:21;11.27;;;9.85;;
24715;SDS011;12822;50.124;8.678;2023-06-22T04:50:47;15.43;;;10.07;;
24715;SDS011;12822;50.124;8.678;2023-06-22T04:53:13;11.75;;;9.05;;
24715;SDS011;12822;50.124;8.678;2023-06-22T04:55:39;14.25;;;10.35;;
24715;SDS011;12822;50.124;8.678;2023-06-22T04:58:06;11.68;;;9.65;;
24715;SDS011;12822;50.124;8.678;2023-06-22T05:00:33;11.63;;;9.57;;
24715;SDS011;12822;50.124;8.678;2023-06-22T05:03:01;13.48;;;9.30;;
24715;SDS011;12822;50.124;8.678;2023-06-22T05:05:28;14.15;;;9.90;;
24715;SDS011;12822;50.124;8.678;2023-06-22T05:07:56;11.65;;;9.52;;
24715;SDS011;12822;50.124;8.678;2023-06-22T05:10:25;11.13;;;8.73;;
24715;SDS011;12822;50.124;8.678;2023-06-22T05:12:51;15.02;;;9.52;;
24715;SDS011;12822;50.124;8.678;2023-06-22T05:15:17;11.00;;;8.90;;
24715;SDS011;12822;50.124;8.678;2023-06-22T05:17:51;11.23;;;9.43;;
24715;SDS011;12822;50.124;8.678;2023-06-22T05:20:17;10.45;;;9.35;;
24715;SDS011;12822;50.124;8.678;2023-06-22T05:22:43;15.75;;;9.98;;
24715;SDS011;12822;50.124;8.678;2023-06-22T05:25:10;19.00;;;11.10;;
24715;SDS011;12822;50.124;8.678;2023-06-22T05:27:36;13.60;;;10.40;;
24715;SDS011;12822;50.124;8.678;2023-06-22T05:30:06;15.40;;;10.40;;
24715;SDS011;12822;50.124;8.678;2023-06-22T05:32:33;12.38;;;9.82;;
24715;SDS011;12822;50.124;8.678;2023-06-22T05:34:59;13.50;;;9.52;;
24715;SDS011;12822;50.124;8.678;2023-06-22T05:37:25;13.60;;;9.77;;
24715;SDS011;12822;50.124;8.678;2023-06-22T05:39:51;13.90;;;9.85;;
24715;SDS011;12822;50.124;8.678;2023-06-22T05:42:19;12.80;;;9.95;;
24715;SDS011;12822;50.124;8.678;2023-06-22T05:44:45;13.57;;;10.00;;
24715;SDS011;12822;50.124;8.678;2023-06-22T05:47:12;12.35;;;9.32;;
24715;SDS011;12822;50.124;8.678;2023-06-22T05:49:38;9.93;;;8.77;;
24715;SDS011;12822;50.124;8.678;2023-06-22T05:52:04;10.38;;;8.57;;
24715;SDS011;12822;50.124;8.678;2023-06-22T05:54:30;10.75;;;8.63;;
24715;SDS011;12822;50.124;8.678;2023-06-22T05:56:57;10.57;;;9.38;;
24715;SDS011;12822;50.124;8.678;2023-06-22T05:59:23;16.58;;;11.00;;
24715;SDS011;12822;50.124;8.678;2023-06-22T06:01:49;18.05;;;10.25;;
24715;SDS011;12822;50.124;8.678;2023-06-22T06:04:18;13.00;;;9.60;;
24715;SDS011;12822;50.124;8.678;2023-06-22T06:06:44;18.27;;;9.93;;
24715;SDS011;12822;50.124;8.678;2023-06-22T06:09:12;13.77;;;10.35;;
24715;SDS011;12822;50.124;8.678;2023-06-22T06:11:38;17.40;;;10.02;;
24715;SDS011;12822;50.124;8.678;2023-06-22T06:14:04;26.63;;;10.85;;
24715;SDS011;12822;50.124;8.678;2023-06-22T06:16:30;12.57;;;9.55;;
24715;SDS011;12822;50.124;8.678;2023-06-22T06:18:56;17.13;;;9.52;;
24715;SDS011;12822;50.124;8.678;2023-06-22T06:21:23;13.05;;;9.50;;
24715;SDS011;12822;50.124;8.678;2023-06-22T06:23:49;16.17;;;10.15;;
24715;SDS011;12822;50.124;8.678;2023-06-22T06:26:15;11.02;;;8.35;;
24715;SDS011;12822;50.124;8.678;2023-06-22T06:28:42;12.38;;;9.38;;
24715;SDS011;12822;50.124;8.678;2023-06-22T06:31:08;11.50;;;9.02;;
24715;SDS011;12822;50.124;8.678;2023-06-22T06:33:35;13.18;;;8.65;;
24715;SDS011;12822;50.124;8.678;2023-06-22T06:36:01;13.38;;;9.73;;
24715;SDS011;12822;50.124;8.678;2023-06-22T06:38:29;14.18;;;9.50;;
24715;SDS011;12822;50.124;8.678;2023-06-22T06:40:57;10.90;;;9.65;;
24715;SDS011;12822;50.124;8.678;2023-06-22T06:43:23;12.32;;;8.68;;
24715;SDS011;12822;50.124;8.678;2023-06-22T06:45:49;10.25;;;8.55;;
24715;SDS011;12822;50.124;8.678;2023-06-22T06:48:15;14.20;;;8.73;;
24715;SDS011;12822;50.124;8.678;2023-06-22T06:50:42;14.55;;;9.10;;
24715;SDS011;12822;50.124;8.678;2023-06-22T06:53:09;14.68;;;8.80;;
24715;SDS011;12822;50.124;8.678;2023-06-22T06:55:35;18.77;;;10.15;;
24715;SDS011;12822;50.124;8.678;2023-06-22T06:58:01;14.75;;;9.23;;
24715;SDS011;12822;50.124;8.678;2023-06-22T07:00:32;11.57;;;8.45;;
24715;SDS011;12822;50.124;8.678;2023-06-22T07:02:58;13.25;;;8.90;;
24715;SDS011;12822;50.124;8.678;2023-06-22T07:05:24;12.30;;;8.98;;
24715;SDS011;12822;50.124;8.678;2023-06-22T07:07:50;14.90;;;11.35;;
24715;SDS011;12822;50.124;8.678;2023-06-22T07:10:16;23.98;;;10.43;;
24715;SDS011;12822;50.124;8.678;2023-06-22T07:12:42;12.77;;;8.50;;
24715;SDS011;12822;50.124;8.678;2023-06-22T07:15:09;12.18;;;9.20;;
24715;SDS011;12822;50.124;8.678;2023-06-22T07:17:36;11.13;;;9.10;;
24715;SDS011;12822;50.124;8.678;2023-06-22T07:20:02;14.18;;;7.93;;
24715;SDS011;12822;50.124;8.678;2023-06-22T07:24:59;15.30;;;8.88;;
24715;SDS011;12822;50.124;8.678;2023-06-22T07:27:26;12.18;;;8.50;;
24715;SDS011;12822;50.124;8.678;2023-06-22T07:29:52;14.07;;;8.48;;
24715;SDS011;12822;50.124;8.678;2023-06-22T07:32:20;10.50;;;7.80;;
24715;SDS011;12822;50.124;8.678;2023-06-22T07:34:46;14.60;;;8.48;;
24715;SDS011;12822;50.124;8.678;2023-06-22T07:37:12;13.85;;;8.82;;
24715;SDS011;12822;50.124;8.678;2023-06-22T07:39:38;12.07;;;8.82;;
24715;SDS011;12822;50.124;8.678;2023-06-22T07:42:04;13.13;;;8.57;;
24715;SDS011;12822;50.124;8.678;2023-06-22T07:44:30;12.02;;;8.43;;
24715;SDS011;12822;50.124;8.678;2023-06-22T07:46:56;14.75;;;8.52;;
24715;SDS011;12822;50.124;8.678;2023-06-22T07:49:22;11.13;;;8.18;;
24715;SDS011;12822;50.124;8.678;2023-06-22T07:51:48;15.98;;;9.43;;
24715;SDS011;12822;50.124;8.678;2023-06-22T07:54:14;13.88;;;9.30;;
24715;SDS011;12822;50.124;8.678;2023-06-22T07:56:41;15.77;;;10.15;;
24715;SDS011;12822;50.124;8.678;2023-06-22T07:59:08;17.17;;;8.85;;
24715;SDS011;12822;50.124;8.678;2023-06-22T08:01:34;12.85;;;8.45;;
24715;SDS011;12822;50.124;8.678;2023-06-22T08:04:00;13.68;;;8.00;;
24715;SDS011;12822;50.124;8.678;2023-06-22T08:06:26;17.58;;;8.57;;
24715;SDS011;12822;50.124;8.678;2023-06-22T08:08:52;13.88;;;7.68;;
24715;SDS011;12822;50.124;8.678;2023-06-22T08:11:19;9.57;;;7.70;;
24715;SDS011;12822;50.124;8.678;2023-06-22T08:13:47;12.38;;;7.95;;
24715;SDS011;12822;50.124;8.678;2023-06-22T08:16:13;11.50;;;8.40;;
24715;SDS011;12822;50.124;8.678;2023-06-22T08:18:39;12.82;;;8.32;;
24715;SDS011;12822;50.124;8.678;2023-06-22T08:21:05;11.73;;;7.90;;
24715;SDS011;12822;50.124;8.678;2023-06-22T08:23:31;12.00;;;7.88;;
24715;SDS011;12822;50.124;8.678;2023-06-22T08:25:57;10.63;;;8.88;;
24715;SDS011;12822;50.124;8.678;2023-06-22T08:28:23;10.43;;;8.48;;
24715;SDS011;12822;50.124;8.678;2023-06-22T08:30:49;9.23;;;7.30;;
24715;SDS011;12822;50.124;8.678;2023-06-22T08:33:15;8.57;;;7.78;;
24715;SDS011;12822;50.124;8.678;2023-06-22T08:35:42;9.30;;;6.97;;
24715;SDS011;12822;50.124;8.678;2023-06-22T08:38:08;12.77;;;8.35;;
24715;SDS011;12822;50.124;8.678;2023-06-22T08:40:35;10.88;;;7.63;;
24715;SDS011;12822;50.124;8.678;2023-06-22T08:43:01;11.07;;;7.68;;
24715;SDS011;12822;50.124;8.678;2023-06-22T08:45:27;9.38;;;7.57;;
24715;SDS011;12822;50.124;8.678;2023-06-22T08:47:53;7.97;;;6.88;;
24715;SDS011;12822;50.124;8.678;2023-06-22T08:50:19;12.43;;;7.50;;
24715;SDS011;12822;50.124;8.678;2023-06-22T08:52:45;9.40;;;7.30;;
24715;SDS011;12822;50.124;8.678;2023-06-22T08:55:11;9.13;;;7.32;;
24715;SDS011;12822;50.124;8.678;2023-06-22T08:57:39;9.32;;;7.15;;
24715;SDS011;12822;50.124;8.678;2023-06-22T09:00:06;9.18;;;7.72;;
24715;SDS011;12822;50.124;8.678;2023-06-22T09:02:40;10.05;;;7.43;;
24715;SDS011;12822;50.124;8.678;2023-06-22T09:05:06;8.32;;;7.40;;
24715;SDS011;12822;50.124;8.678;2023-06-22T09:07:32;8.68;;;7.35;;
24715;SDS011;12822;50.124;8.678;2023-06-22T09:09:59;11.57;;;7.28;;
24715;SDS011;12822;50.124;8.678;2023-06-22T09:12:25;11.00;;;7.43;;
24715;SDS011;12822;50.124;8.678;2023-06-22T09:14:52;8.10;;;7.32;;
24715;SDS011;12822;50.124;8.678;2023-06-22T09:17:18;10.98;;;7.75;;
24715;SDS011;12822;50.124;8.678;2023-06-22T09:19:44;10.98;;;7.35;;
24715;SDS011;12822;50.124;8.678;2023-06-22T09:22:11;8.85;;;7.95;;
24715;SDS011;12822;50.124;8.678;2023-06-22T09:24:37;9.63;;;8.38;;
24715;SDS011;12822;50.124;8.678;2023-06-22T09:27:05;11.30;;;8.13;;
24715;SDS011;12822;50.124;8.678;2023-06-22T09:29:31;10.63;;;7.72;;
24715;SDS011;12822;50.124;8.678;2023-06-22T09:31:59;11.65;;;8.07;;
24715;SDS011;12822;50.124;8.678;2023-06-22T09:34:25;12.95;;;8.23;;
24715;SDS011;12822;50.124;8.678;2023-06-22T09:36:51;12.15;;;8.00;;
24715;SDS011;12822;50.124;8.678;2023-06-22T09:39:17;10.75;;;7.70;;
24715;SDS011;12822;50.124;8.678;2023-06-22T09:41:43;9.98;;;8.10;;
24715;SDS011;12822;50.124;8.678;2023-06-22T09:44:09;12.88;;;8.27;;
24715;SDS011;12822;50.124;8.678;2023-06-22T09:46:35;8.52;;;7.68;;
24715;SDS011;12822;50.124;8.678;2023-06-22T09:49:01;14.10;;;7.90;;
24715;SDS011;12822;50.124;8.678;2023-06-22T09:51:27;13.65;;;8.05;;
24715;SDS011;12822;50.124;8.678;2023-06-22T09:53:53;14.60;;;7.78;;
24715;SDS011;12822;50.124;8.678;2023-06-22T09:56:20;11.23;;;7.38;;
24715;SDS011;12822;50.124;8.678;2023-06-22T09:58:46;11.48;;;7.55;;
24715;SDS011;12822;50.124;8.678;2023-06-22T10:01:12;10.45;;;7.35;;
24715;SDS011;12822;50.124;8.678;2023-06-22T10:03:41;8.63;;;6.70;;
24715;SDS011;12822;50.124;8.678;2023-06-22T10:06:07;8.55;;;6.43;;
24715;SDS011;12822;50.124;8.678;2023-06-22T10:08:34;10.23;;;6.20;;
24715;SDS011;12822;50.124;8.678;2023-06-22T10:11:01;7.10;;;5.78;;
24715;SDS011;12822;50.124;8.678;2023-06-22T10:13:30;6.25;;;5.65;;
24715;SDS011;12822;50.124;8.678;2023-06-22T10:15:56;6.10;;;5.50;;
24715;SDS011;12822;50.124;8.678;2023-06-22T10:18:22;6.32;;;5.72;;
24715;SDS011;12822;50.124;8.678;2023-06-22T10:20:48;11.45;;;5.70;;
24715;SDS011;12822;50.124;8.678;2023-06-22T10:23:18;8.68;;;5.50;;
24715;SDS011;12822;50.124;8.678;2023-06-22T10:25:44;7.10;;;5.65;;
24715;SDS011;12822;50.124;8.678;2023-06-22T10:28:10;7.18;;;5.78;;
24715;SDS011;12822;50.124;8.678;2023-06-22T10:30:37;9.40;;;6.00;;
24715;SDS011;12822;50.124;8.678;2023-06-22T10:33:03;9.13;;;6.43;;
24715;SDS011;12822;50.124;8.678;2023-06-22T10:35:29;9.50;;;6.72;;
24715;SDS011;12822;50.124;8.678;2023-06-22T10:37:55;9.30;;;6.00;;
24715;SDS011;12822;50.124;8.678;2023-06-22T10:40:21;9.18;;;6.10;;
24715;SDS011;12822;50.124;8.678;2023-06-22T10:42:47;8.73;;;6.07;;
24715;SDS011;12822;50.124;8.678;2023-06-22T10:45:15;9.10;;;5.47;;
24715;SDS011;12822;50.124;8.678;2023-06-22T10:47:41;8.70;;;5.50;;
24715;SDS011;12822;50.124;8.678;2023-06-22T10:50:07;9.98;;;6.18;;
24715;SDS011;12822;50.124;8.678;2023-06-22T10:52:33;9.35;;;5.47;;
24715;SDS011;12822;50.124;8.678;2023-06-22T10:54:59;9.70;;;5.70;;
24715;SDS011;12822;50.124;8.678;2023-06-22T10:57:25;11.20;;;5.72;;
24715;SDS011;12822;50.124;8.678;2023-06-22T10:59:51;7.18;;;5.10;;
24715;SDS011;12822;50.124;8.678;2023-06-22T11:02:17;7.75;;;5.40;;
24715;SDS011;12822;50.124;8.678;2023-06-22T11:04:43;7.53;;;5.32;;
24715;SDS011;12822;50.124;8.678;2023-06-22T11:07:11;7.10;;;5.00;;
24715;SDS011;12822;50.124;8.678;2023-06-22T11:09:37;6.35;;;5.00;;
24715;SDS011;12822;50.124;8.678;2023-06-22T11:12:04;6.35;;;5.40;;
24715;SDS011;12822;50.124;8.678;2023-06-22T11:14:30;9.15;;;5.28;;
24715;SDS011;12822;50.124;8.678;2023-06-22T11:16:58;8.00;;;5.60;;
24715;SDS011;12822;50.124;8.678;2023-06-22T11:19:24;10.43;;;5.68;;
24715;SDS011;12822;50.124;8.678;2023-06-22T11:21:50;10.52;;;5.32;;
24715;SDS011;12822;50.124;8.678;2023-06-22T11:24:16;11.88;;;6.00;;
24715;SDS011;12822;50.124;8.678;2023-06-22T11:26:43;8.02;;;6.00;;
24715;SDS011;12822;50.124;8.678;2023-06-22T11:29:09;7.68;;;5.75;;
24715;SDS011;12822;50.124;8.678;2023-06-22T11:31:35;7.22;;;5.93;;
24715;SDS011;12822;50.124;8.678;2023-06-22T11:34:01;8.73;;;5.88;;
24715;SDS011;12822;50.124;8.678;2023-06-22T11:36:28;12.43;;;6.63;;
24715;SDS011;12822;50.124;8.678;2023-06-22T11:38:57;7.72;;;5.70;;
24715;SDS011;12822;50.124;8.678;2023-06-22T11:41:23;10.02;;;6.05;;
24715;SDS011;12822;50.124;8.678;2023-06-22T11:43:49;9.13;;;5.78;;
24715;SDS011;12822;50.124;8.678;2023-06-22T11:46:16;6.47;;;5.70;;
24715;SDS011;12822;50.124;8.678;2023-06-22T11:48:42;13.07;;;6.60;;
24715;SDS011;12822;50.124;8.678;2023-06-22T11:51:08;8.88;;;5.85;;
24715;SDS011;12822;50.124;8.678;2023-06-22T11:53:34;9.75;;;6.28;;
24715;SDS011;12822;50.124;8.678;2023-06-22T11:56:00;9.80;;;6.07;;
24715;SDS011;12822;50.124;8.678;2023-06-22T11:58:27;14.45;;;6.70;;
24715;SDS011;12822;50.124;8.678;2023-06-22T12:00:53;9.68;;;6.70;;
24715;SDS011;12822;50.124;8.678;2023-06-22T12:03:19;13.48;;;6.28;;
24715;SDS011;12822;50.124;8.678;2023-06-22T12:05:46;13.95;;;6.78;;
24715;SDS011;12822;50.124;8.678;2023-06-22T12:08:12;15.20;;;6.50;;
24715;SDS011;12822;50.124;8.678;2023-06-22T12:10:39;10.10;;;6.57;;
24715;SDS011;12822;50.124;8.678;2023-06-22T12:13:05;8.60;;;6.15;;
24715;SDS011;12822;50.124;8.678;2023-06-22T12:15:31;13.38;;;6.15;;
24715;SDS011;12822;50.124;8.678;2023-06-22T12:17:57;11.18;;;6.38;;
24715;SDS011;12822;50.124;8.678;2023-06-22T12:20:23;14.23;;;6.40;;
24715;SDS011;12822;50.124;8.678;2023-06-22T12:22:49;9.18;;;5.95;;
24715;SDS011;12822;50.124;8.678;2023-06-22T12:25:16;13.00;;;6.60;;
24715;SDS011;12822;50.124;8.678;2023-06-22T12:27:42;11.73;;;6.70;;
24715;SDS011;12822;50.124;8.678;2023-06-22T12:30:08;10.15;;;6.50;;
24715;SDS011;12822;50.124;8.678;2023-06-22T12:32:34;11.88;;;6.18;;
24715;SDS011;12822;50.124;8.678;2023-06-22T12:35:00;12.38;;;6.25;;
24715;SDS011;12822;50.124;8.678;2023-06-22T12:37:26;13.98;;;6.35;;
24715;SDS011;12822;50.124;8.678;2023-06-22T12:39:54;11.38;;;6.10;;
24715;SDS011;12822;50.124;8.678;2023-06-22T12:42:23;10.57;;;6.03;;
24715;SDS011;12822;50.124;8.678;2023-06-22T12:44:51;9.13;;;6.45;;
24715;SDS011;12822;50.124;8.678;2023-06-22T12:47:17;13.55;;;6.55;;
24715;SDS011;12822;50.124;8.678;2023-06-22T12:49:45;10.90;;;6.18;;
24715;SDS011;12822;50.124;8.678;2023-06-22T12:52:11;9.93;;;6.18;;
24715;SDS011;12822;50.124;8.678;2023-06-22T12:54:37;15.35;;;6.90;;
24715;SDS011;12822;50.124;8.678;2023-06-22T12:57:03;12.48;;;6.97;;
24715;SDS011;12822;50.124;8.678;2023-06-22T12:59:29;12.60;;;6.80;;
24715;SDS011;12822;50.124;8.678;2023-06-22T13:01:55;9.77;;;6.82;;
24715;SDS011;12822;50.124;8.678;2023-06-22T13:04:21;14.60;;;7.35;;
24715;SDS011;12822;50.124;8.678;2023-06-22T13:06:47;17.23;;;7.50;;
24715;SDS011;12822;50.124;8.678;2023-06-22T13:09:14;11.68;;;7.22;;
24715;SDS011;12822;50.124;8.678;2023-06-22T13:11:40;12.70;;;7.30;;
24715;SDS011;12822;50.124;8.678;2023-06-22T13:14:06;12.57;;;7.45;;
24715;SDS011;12822;50.124;8.678;2023-06-22T13:16:32;14.23;;;7.07;;
24715;SDS011;12822;50.124;8.678;2023-06-22T13:18:58;13.65;;;7.07;;
24715;SDS011;12822;50.124;8.678;2023-06-22T13:21:24;16.90;;;7.95;;
24715;SDS011;12822;50.124;8.678;2023-06-22T13:23:50;13.88;;;7.07;;
24715;SDS011;12822;50.124;8.678;2023-06-22T13:26:16;16.02;;;7.65;;
24715;SDS011;12822;50.124;8.678;2023-06-22T13:28:42;15.63;;;7.47;;
24715;SDS011;12822;50.124;8.678;2023-06-22T13:31:09;24.75;;;8.32;;
24715;SDS011;12822;50.124;8.678;2023-06-22T13:33:35;12.32;;;7.50;;
24715;SDS011;12822;50.124;8.678;2023-06-22T13:36:02;12.32;;;7.00;;
24715;SDS011;12822;50.124;8.678;2023-06-22T13:38:28;13.68;;;7.50;;
24715;SDS011;12822;50.124;8.678;2023-06-22T13:40:57;12.15;;;6.93;;
24715;SDS011;12822;50.124;8.678;2023-06-22T13:43:24;10.63;;;7.00;;
24715;SDS011;12822;50.124;8.678;2023-06-22T13:45:52;14.18;;;7.45;;
24715;SDS011;12822;50.124;8.678;2023-06-22T13:48:18;10.85;;;7.70;;
24715;SDS011;12822;50.124;8.678;2023-06-22T13:50:44;16.33;;;8.13;;
24715;SDS011;12822;50.124;8.678;2023-06-22T13:53:11;17.50;;;7.90;;
24715;SDS011;12822;50.124;8.678;2023-06-22T13:55:37;16.77;;;7.70;;
24715;SDS011;12822;50.124;8.678;2023-06-22T13:58:03;14.85;;;7.70;;
24715;SDS011;12822;50.124;8.678;2023-06-22T14:00:29;12.40;;;7.38;;
24715;SDS011;12822;50.124;8.678;2023-06-22T14:02:57;18.50;;;7.85;;
24715;SDS011;12822;50.124;8.678;2023-06-22T14:05:23;17.17;;;8.25;;
24715;SDS011;12822;50.124;8.678;2023-06-22T14:07:49;10.45;;;7.05;;
24715;SDS011;12822;50.124;8.678;2023-06-22T14:10:15;12.43;;;8.02;;
24715;SDS011;12822;50.124;8.678;2023-06-22T14:12:41;12.10;;;7.50;;
24715;SDS011;12822;50.124;8.678;2023-06-22T14:15:07;17.05;;;7.78;;
24715;SDS011;12822;50.124;8.678;2023-06-22T14:17:34;18.60;;;7.70;;
24715;SDS011;12822;50.124;8.678;2023-06-22T14:20:00;16.80;;;7.63;;
24715;SDS011;12822;50.124;8.678;2023-06-22T14:22:26;18.13;;;7.35;;
24715;SDS011;12822;50.124;8.678;2023-06-22T14:24:54;14.07;;;7.50;;
24715;SDS011;12822;50.124;8.678;2023-06-22T14:27:22;18.40;;;7.32;;
24715;SDS011;12822;50.124;8.678;2023-06-22T14:29:48;12.32;;;7.55;;
24715;SDS011;12822;50.124;8.678;2023-06-22T14:32:14;23.13;;;6.93;;
24715;SDS011;12822;50.124;8.678;2023-06-22T14:34:40;11.00;;;6.32;;
24715;SDS011;12822;50.124;8.678;2023-06-22T14:37:07;15.00;;;6.95;;